sensor_id;sensor_type;location;lat;lon;timestamp;P1;durP1;ratioP1;P2;durP2;ratioP2
25263;SDS011;13211;51.796;5.808;2023-08-17T00:00:32;11.23;;;2.17;;
25263;SDS011;13211;51.796;5.808;2023-08-17T00:03:00;8.02;;;1.77;;
25263;SDS011;13211;51.796;5.808;2023-08-17T00:05:30;7.07;;;1.73;;
25263;SDS011;13211;51.796;5.808;2023-08-17T00:08:00;8.15;;;1.58;;
25263;SDS011;13211;51.796;5.808;2023-08-17T00:10:28;7.03;;;1.85;;
25263;SDS011;13211;51.796;5.808;2023-08-17T00:12:56;10.38;;;1.98;;
25263;SDS011;13211;51.796;5.808;2023-08-17T00:15:23;10.88;;;1.80;;
25263;SDS011;13211;51.796;5.808;2023-08-17T00:17:51;7.72;;;2.00;;
25263;SDS011;13211;51.796;5.808;2023-08-17T00:20:18;6.85;;;1.90;;
25263;SDS011;13211;51.796;5.808;2023-08-17T00:22:46;6.20;;;1.90;;
25263;SDS011;13211;51.796;5.808;2023-08-17T00:25:14;8.95;;;1.98;;
25263;SDS011;13211;51.796;5.808;2023-08-17T00:27:41;7.75;;;2.05;;
25263;SDS011;13211;51.796;5.808;2023-08-17T00:30:09;6.22;;;2.00;;
25263;SDS011;13211;51.796;5.808;2023-08-17T00:32:37;7.72;;;1.67;;
25263;SDS011;13211;51.796;5.808;2023-08-17T00:35:05;6.55;;;1.88;;
25263;SDS011;13211;51.796;5.808;2023-08-17T00:37:33;4.78;;;1.75;;
25263;SDS011;13211;51.796;5.808;2023-08-17T00:40:01;6.20;;;1.95;;
25263;SDS011;13211;51.796;5.808;2023-08-17T00:42:28;9.95;;;1.77;;
25263;SDS011;13211;51.796;5.808;2023-08-17T00:44:57;4.60;;;1.67;;
25263;SDS011;13211;51.796;5.808;2023-08-17T00:47:25;7.25;;;1.98;;
25263;SDS011;13211;51.796;5.808;2023-08-17T00:49:53;9.35;;;2.13;;
25263;SDS011;13211;51.796;5.808;2023-08-17T00:52:21;7.75;;;1.80;;
25263;SDS011;13211;51.796;5.808;2023-08-17T00:54:48;7.30;;;1.90;;
25263;SDS011;13211;51.796;5.808;2023-08-17T00:57:15;10.45;;;2.03;;
25263;SDS011;13211;51.796;5.808;2023-08-17T00:59:43;7.50;;;2.40;;
25263;SDS011;13211;51.796;5.808;2023-08-17T01:02:28;4.30;;;1.50;;
25263;SDS011;13211;51.796;5.808;2023-08-17T01:04:56;6.43;;;2.05;;
25263;SDS011;13211;51.796;5.808;2023-08-17T01:07:25;7.88;;;2.00;;
25263;SDS011;13211;51.796;5.808;2023-08-17T01:09:53;9.60;;;1.50;;
25263;SDS011;13211;51.796;5.808;2023-08-17T01:17:37;9.75;;;2.20;;
25263;SDS011;13211;51.796;5.808;2023-08-17T01:20:07;11.32;;;1.73;;
25263;SDS011;13211;51.796;5.808;2023-08-17T01:22:40;7.72;;;1.90;;
25263;SDS011;13211;51.796;5.808;2023-08-17T01:25:09;7.35;;;1.77;;
25263;SDS011;13211;51.796;5.808;2023-08-17T01:27:39;6.80;;;1.70;;
25263;SDS011;13211;51.796;5.808;2023-08-17T01:30:09;9.57;;;2.47;;
25263;SDS011;13211;51.796;5.808;2023-08-17T01:38:04;7.18;;;2.15;;
25263;SDS011;13211;51.796;5.808;2023-08-17T01:40:34;8.50;;;1.77;;
25263;SDS011;13211;51.796;5.808;2023-08-17T01:43:02;8.45;;;1.80;;
25263;SDS011;13211;51.796;5.808;2023-08-17T01:45:30;4.80;;;1.58;;
25263;SDS011;13211;51.796;5.808;2023-08-17T01:48:00;7.75;;;2.45;;
25263;SDS011;13211;51.796;5.808;2023-08-17T01:50:29;9.52;;;2.22;;
25263;SDS011;13211;51.796;5.808;2023-08-17T01:52:57;9.80;;;2.17;;
25263;SDS011;13211;51.796;5.808;2023-08-17T01:55:25;10.40;;;2.10;;
25263;SDS011;13211;51.796;5.808;2023-08-17T01:57:53;7.40;;;2.22;;
25263;SDS011;13211;51.796;5.808;2023-08-17T02:00:21;6.40;;;2.00;;
25263;SDS011;13211;51.796;5.808;2023-08-17T02:02:48;6.95;;;1.70;;
25263;SDS011;13211;51.796;5.808;2023-08-17T02:05:16;5.18;;;1.52;;
25263;SDS011;13211;51.796;5.808;2023-08-17T02:07:45;6.68;;;1.77;;
25263;SDS011;13211;51.796;5.808;2023-08-17T02:10:13;4.95;;;1.60;;
25263;SDS011;13211;51.796;5.808;2023-08-17T02:12:40;6.63;;;1.63;;
25263;SDS011;13211;51.796;5.808;2023-08-17T02:15:08;6.00;;;1.58;;
25263;SDS011;13211;51.796;5.808;2023-08-17T02:17:36;4.28;;;1.52;;
25263;SDS011;13211;51.796;5.808;2023-08-17T02:20:04;5.78;;;1.70;;
25263;SDS011;13211;51.796;5.808;2023-08-17T02:22:31;9.20;;;1.88;;
25263;SDS011;13211;51.796;5.808;2023-08-17T02:24:59;8.55;;;2.00;;
25263;SDS011;13211;51.796;5.808;2023-08-17T02:27:27;8.63;;;2.00;;
25263;SDS011;13211;51.796;5.808;2023-08-17T02:29:58;6.32;;;1.83;;
25263;SDS011;13211;51.796;5.808;2023-08-17T02:32:27;8.43;;;1.60;;
25263;SDS011;13211;51.796;5.808;2023-08-17T02:34:55;8.82;;;1.63;;
25263;SDS011;13211;51.796;5.808;2023-08-17T02:37:22;7.47;;;1.90;;
25263;SDS011;13211;51.796;5.808;2023-08-17T02:39:50;8.30;;;2.28;;
25263;SDS011;13211;51.796;5.808;2023-08-17T02:42:18;4.45;;;1.50;;
25263;SDS011;13211;51.796;5.808;2023-08-17T02:44:45;5.03;;;1.70;;
25263;SDS011;13211;51.796;5.808;2023-08-17T02:47:13;7.88;;;2.05;;
25263;SDS011;13211;51.796;5.808;2023-08-17T02:49:41;7.00;;;2.47;;
25263;SDS011;13211;51.796;5.808;2023-08-17T02:52:08;4.50;;;1.52;;
25263;SDS011;13211;51.796;5.808;2023-08-17T02:54:36;4.32;;;1.58;;
25263;SDS011;13211;51.796;5.808;2023-08-17T02:57:03;7.55;;;1.80;;
25263;SDS011;13211;51.796;5.808;2023-08-17T02:59:31;6.78;;;1.70;;
25263;SDS011;13211;51.796;5.808;2023-08-17T03:01:58;7.18;;;1.90;;
25263;SDS011;13211;51.796;5.808;2023-08-17T03:04:26;5.45;;;1.70;;
25263;SDS011;13211;51.796;5.808;2023-08-17T03:06:55;5.95;;;1.80;;
25263;SDS011;13211;51.796;5.808;2023-08-17T03:11:53;6.00;;;2.17;;
25263;SDS011;13211;51.796;5.808;2023-08-17T03:14:20;8.18;;;1.75;;
25263;SDS011;13211;51.796;5.808;2023-08-17T03:16:48;7.90;;;1.80;;
25263;SDS011;13211;51.796;5.808;2023-08-17T03:19:15;16.42;;;2.15;;
25263;SDS011;13211;51.796;5.808;2023-08-17T03:21:44;5.00;;;1.63;;
25263;SDS011;13211;51.796;5.808;2023-08-17T03:24:12;5.18;;;1.60;;
25263;SDS011;13211;51.796;5.808;2023-08-17T03:26:39;5.65;;;1.40;;
25263;SDS011;13211;51.796;5.808;2023-08-17T03:29:07;6.30;;;1.63;;
25263;SDS011;13211;51.796;5.808;2023-08-17T03:31:37;5.60;;;1.80;;
25263;SDS011;13211;51.796;5.808;2023-08-17T03:34:07;8.77;;;1.88;;
25263;SDS011;13211;51.796;5.808;2023-08-17T03:36:35;8.23;;;1.80;;
25263;SDS011;13211;51.796;5.808;2023-08-17T03:39:03;5.78;;;1.60;;
25263;SDS011;13211;51.796;5.808;2023-08-17T03:41:31;5.55;;;1.77;;
25263;SDS011;13211;51.796;5.808;2023-08-17T03:43:58;5.18;;;1.60;;
25263;SDS011;13211;51.796;5.808;2023-08-17T03:46:26;7.43;;;2.00;;
25263;SDS011;13211;51.796;5.808;2023-08-17T03:48:53;6.50;;;1.70;;
25263;SDS011;13211;51.796;5.808;2023-08-17T03:51:21;10.82;;;2.15;;
25263;SDS011;13211;51.796;5.808;2023-08-17T03:53:49;8.50;;;1.70;;
25263;SDS011;13211;51.796;5.808;2023-08-17T03:56:17;5.47;;;1.73;;
25263;SDS011;13211;51.796;5.808;2023-08-17T03:58:44;4.97;;;1.80;;
25263;SDS011;13211;51.796;5.808;2023-08-17T04:01:12;7.20;;;1.75;;
25263;SDS011;13211;51.796;5.808;2023-08-17T04:03:42;9.75;;;2.35;;
25263;SDS011;13211;51.796;5.808;2023-08-17T04:06:09;6.32;;;1.88;;
25263;SDS011;13211;51.796;5.808;2023-08-17T04:08:37;5.88;;;1.98;;
25263;SDS011;13211;51.796;5.808;2023-08-17T04:11:05;5.25;;;2.10;;
25263;SDS011;13211;51.796;5.808;2023-08-17T04:13:36;7.75;;;2.15;;
25263;SDS011;13211;51.796;5.808;2023-08-17T04:16:04;7.10;;;1.95;;
25263;SDS011;13211;51.796;5.808;2023-08-17T04:18:32;8.68;;;2.40;;
25263;SDS011;13211;51.796;5.808;2023-08-17T04:21:00;7.65;;;1.80;;
25263;SDS011;13211;51.796;5.808;2023-08-17T04:23:27;9.80;;;2.42;;
25263;SDS011;13211;51.796;5.808;2023-08-17T04:25:55;7.95;;;2.17;;
25263;SDS011;13211;51.796;5.808;2023-08-17T04:28:23;9.35;;;2.13;;
25263;SDS011;13211;51.796;5.808;2023-08-17T04:30:52;7.68;;;2.00;;
25263;SDS011;13211;51.796;5.808;2023-08-17T04:33:19;6.63;;;1.90;;
25263;SDS011;13211;51.796;5.808;2023-08-17T04:35:47;8.50;;;2.55;;
25263;SDS011;13211;51.796;5.808;2023-08-17T04:38:15;5.82;;;1.95;;
25263;SDS011;13211;51.796;5.808;2023-08-17T04:40:44;7.65;;;2.10;;
25263;SDS011;13211;51.796;5.808;2023-08-17T04:43:13;6.85;;;1.80;;
25263;SDS011;13211;51.796;5.808;2023-08-17T04:45:40;8.02;;;2.05;;
25263;SDS011;13211;51.796;5.808;2023-08-17T04:48:09;7.22;;;2.17;;
25263;SDS011;13211;51.796;5.808;2023-08-17T04:50:36;4.40;;;1.90;;
25263;SDS011;13211;51.796;5.808;2023-08-17T04:53:04;6.75;;;2.13;;
25263;SDS011;13211;51.796;5.808;2023-08-17T04:55:31;10.48;;;2.55;;
25263;SDS011;13211;51.796;5.808;2023-08-17T04:57:59;6.38;;;2.10;;
25263;SDS011;13211;51.796;5.808;2023-08-17T05:00:28;6.45;;;2.13;;
25263;SDS011;13211;51.796;5.808;2023-08-17T05:02:56;5.45;;;2.28;;
25263;SDS011;13211;51.796;5.808;2023-08-17T05:05:28;8.95;;;2.30;;
25263;SDS011;13211;51.796;5.808;2023-08-17T05:07:56;8.18;;;2.40;;
25263;SDS011;13211;51.796;5.808;2023-08-17T05:10:28;5.60;;;2.15;;
25263;SDS011;13211;51.796;5.808;2023-08-17T05:12:56;9.15;;;2.90;;
25263;SDS011;13211;51.796;5.808;2023-08-17T05:15:23;7.10;;;2.35;;
25263;SDS011;13211;51.796;5.808;2023-08-17T05:17:51;9.85;;;2.28;;
25263;SDS011;13211;51.796;5.808;2023-08-17T05:20:19;8.93;;;2.25;;
25263;SDS011;13211;51.796;5.808;2023-08-17T05:22:47;6.95;;;2.42;;
25263;SDS011;13211;51.796;5.808;2023-08-17T05:25:18;6.00;;;2.45;;
25263;SDS011;13211;51.796;5.808;2023-08-17T05:27:45;7.03;;;2.55;;
25263;SDS011;13211;51.796;5.808;2023-08-17T05:32:43;8.23;;;2.50;;
25263;SDS011;13211;51.796;5.808;2023-08-17T05:35:11;9.27;;;2.38;;
25263;SDS011;13211;51.796;5.808;2023-08-17T05:37:38;9.13;;;2.90;;
25263;SDS011;13211;51.796;5.808;2023-08-17T05:40:06;7.72;;;2.60;;
25263;SDS011;13211;51.796;5.808;2023-08-17T05:42:35;6.25;;;2.42;;
25263;SDS011;13211;51.796;5.808;2023-08-17T05:45:03;7.22;;;2.75;;
25263;SDS011;13211;51.796;5.808;2023-08-17T05:47:31;8.95;;;2.88;;
25263;SDS011;13211;51.796;5.808;2023-08-17T05:49:59;7.88;;;2.88;;
25263;SDS011;13211;51.796;5.808;2023-08-17T05:52:27;12.05;;;2.63;;
25263;SDS011;13211;51.796;5.808;2023-08-17T05:54:55;7.47;;;2.50;;
25263;SDS011;13211;51.796;5.808;2023-08-17T05:57:22;8.93;;;2.63;;
25263;SDS011;13211;51.796;5.808;2023-08-17T05:59:50;8.40;;;2.58;;
25263;SDS011;13211;51.796;5.808;2023-08-17T06:02:18;9.98;;;2.97;;
25263;SDS011;13211;51.796;5.808;2023-08-17T06:04:47;5.65;;;2.45;;
25263;SDS011;13211;51.796;5.808;2023-08-17T06:07:15;9.27;;;2.95;;
25263;SDS011;13211;51.796;5.808;2023-08-17T06:09:44;4.13;;;2.63;;
25263;SDS011;13211;51.796;5.808;2023-08-17T06:12:11;10.48;;;2.65;;
25263;SDS011;13211;51.796;5.808;2023-08-17T06:14:39;8.80;;;2.95;;
25263;SDS011;13211;51.796;5.808;2023-08-17T06:17:07;7.90;;;2.45;;
25263;SDS011;13211;51.796;5.808;2023-08-17T06:19:34;4.90;;;2.28;;
25263;SDS011;13211;51.796;5.808;2023-08-17T06:22:02;7.85;;;2.72;;
25263;SDS011;13211;51.796;5.808;2023-08-17T06:24:29;9.85;;;2.30;;
25263;SDS011;13211;51.796;5.808;2023-08-17T06:26:57;6.38;;;2.70;;
25263;SDS011;13211;51.796;5.808;2023-08-17T06:29:25;12.07;;;2.50;;
25263;SDS011;13211;51.796;5.808;2023-08-17T06:31:52;8.85;;;2.50;;
25263;SDS011;13211;51.796;5.808;2023-08-17T06:34:21;8.00;;;2.58;;
25263;SDS011;13211;51.796;5.808;2023-08-17T06:36:58;8.35;;;2.30;;
25263;SDS011;13211;51.796;5.808;2023-08-17T06:39:26;6.32;;;2.78;;
25263;SDS011;13211;51.796;5.808;2023-08-17T06:41:54;7.78;;;2.30;;
25263;SDS011;13211;51.796;5.808;2023-08-17T06:44:21;10.10;;;3.25;;
25263;SDS011;13211;51.796;5.808;2023-08-17T06:46:49;6.03;;;2.42;;
25263;SDS011;13211;51.796;5.808;2023-08-17T06:49:17;8.48;;;2.25;;
25263;SDS011;13211;51.796;5.808;2023-08-17T06:51:45;8.18;;;2.30;;
25263;SDS011;13211;51.796;5.808;2023-08-17T06:54:12;7.97;;;2.63;;
25263;SDS011;13211;51.796;5.808;2023-08-17T06:56:40;10.15;;;4.53;;
25263;SDS011;13211;51.796;5.808;2023-08-17T06:59:07;9.77;;;2.33;;
25263;SDS011;13211;51.796;5.808;2023-08-17T07:01:35;6.28;;;2.10;;
25263;SDS011;13211;51.796;5.808;2023-08-17T07:04:03;7.18;;;2.30;;
25263;SDS011;13211;51.796;5.808;2023-08-17T07:06:30;4.82;;;2.25;;
25263;SDS011;13211;51.796;5.808;2023-08-17T07:08:58;9.95;;;2.10;;
25263;SDS011;13211;51.796;5.808;2023-08-17T07:11:26;9.15;;;2.42;;
25263;SDS011;13211;51.796;5.808;2023-08-17T07:13:53;10.50;;;2.15;;
25263;SDS011;13211;51.796;5.808;2023-08-17T07:16:21;12.75;;;2.50;;
25263;SDS011;13211;51.796;5.808;2023-08-17T07:18:48;7.95;;;2.30;;
25263;SDS011;13211;51.796;5.808;2023-08-17T07:21:16;6.30;;;2.30;;
25263;SDS011;13211;51.796;5.808;2023-08-17T07:23:44;7.95;;;2.10;;
25263;SDS011;13211;51.796;5.808;2023-08-17T07:26:12;9.07;;;2.40;;
25263;SDS011;13211;51.796;5.808;2023-08-17T07:28:40;8.40;;;2.50;;
25263;SDS011;13211;51.796;5.808;2023-08-17T07:31:08;6.35;;;2.22;;
25263;SDS011;13211;51.796;5.808;2023-08-17T07:33:35;9.43;;;2.22;;
25263;SDS011;13211;51.796;5.808;2023-08-17T07:36:03;7.60;;;2.17;;
25263;SDS011;13211;51.796;5.808;2023-08-17T07:38:31;8.07;;;2.20;;
25263;SDS011;13211;51.796;5.808;2023-08-17T07:40:59;7.85;;;2.10;;
25263;SDS011;13211;51.796;5.808;2023-08-17T07:43:26;10.27;;;2.35;;
25263;SDS011;13211;51.796;5.808;2023-08-17T07:45:54;9.57;;;2.13;;
25263;SDS011;13211;51.796;5.808;2023-08-17T07:48:22;6.85;;;2.10;;
25263;SDS011;13211;51.796;5.808;2023-08-17T07:50:50;3.85;;;1.80;;
25263;SDS011;13211;51.796;5.808;2023-08-17T07:53:21;7.00;;;2.08;;
25263;SDS011;13211;51.796;5.808;2023-08-17T07:55:48;6.18;;;2.30;;
25263;SDS011;13211;51.796;5.808;2023-08-17T07:58:20;6.75;;;2.25;;
25263;SDS011;13211;51.796;5.808;2023-08-17T08:00:47;7.47;;;2.13;;
25263;SDS011;13211;51.796;5.808;2023-08-17T08:03:14;4.80;;;2.25;;
25263;SDS011;13211;51.796;5.808;2023-08-17T08:05:42;7.63;;;2.35;;
25263;SDS011;13211;51.796;5.808;2023-08-17T08:08:10;9.48;;;2.50;;
25263;SDS011;13211;51.796;5.808;2023-08-17T08:10:37;7.40;;;2.20;;
25263;SDS011;13211;51.796;5.808;2023-08-17T08:13:05;11.25;;;2.72;;
25263;SDS011;13211;51.796;5.808;2023-08-17T08:15:33;9.73;;;2.30;;
25263;SDS011;13211;51.796;5.808;2023-08-17T08:18:00;5.65;;;2.47;;
25263;SDS011;13211;51.796;5.808;2023-08-17T08:20:28;11.73;;;2.53;;
25263;SDS011;13211;51.796;5.808;2023-08-17T08:22:56;10.18;;;2.40;;
25263;SDS011;13211;51.796;5.808;2023-08-17T08:25:23;9.10;;;2.65;;
25263;SDS011;13211;51.796;5.808;2023-08-17T08:27:51;8.50;;;2.67;;
25263;SDS011;13211;51.796;5.808;2023-08-17T08:30:19;14.65;;;2.42;;
25263;SDS011;13211;51.796;5.808;2023-08-17T08:32:46;12.40;;;2.78;;
25263;SDS011;13211;51.796;5.808;2023-08-17T08:35:14;6.18;;;2.30;;
25263;SDS011;13211;51.796;5.808;2023-08-17T08:37:41;4.70;;;2.00;;
25263;SDS011;13211;51.796;5.808;2023-08-17T08:40:10;13.95;;;2.42;;
25263;SDS011;13211;51.796;5.808;2023-08-17T08:42:41;7.40;;;2.40;;
25263;SDS011;13211;51.796;5.808;2023-08-17T08:45:09;5.97;;;2.08;;
25263;SDS011;13211;51.796;5.808;2023-08-17T08:47:36;10.50;;;2.28;;
25263;SDS011;13211;51.796;5.808;2023-08-17T08:50:04;13.32;;;2.35;;
25263;SDS011;13211;51.796;5.808;2023-08-17T08:52:33;8.13;;;2.90;;
25263;SDS011;13211;51.796;5.808;2023-08-17T08:57:58;8.98;;;2.50;;
25263;SDS011;13211;51.796;5.808;2023-08-17T09:00:26;14.90;;;2.72;;
25263;SDS011;13211;51.796;5.808;2023-08-17T09:02:53;6.50;;;2.58;;
25263;SDS011;13211;51.796;5.808;2023-08-17T09:05:21;7.15;;;3.03;;
25263;SDS011;13211;51.796;5.808;2023-08-17T09:07:49;10.55;;;2.80;;
25263;SDS011;13211;51.796;5.808;2023-08-17T09:10:17;11.70;;;3.47;;
25263;SDS011;13211;51.796;5.808;2023-08-17T09:12:45;11.38;;;3.08;;
25263;SDS011;13211;51.796;5.808;2023-08-17T09:15:15;11.63;;;2.90;;
25263;SDS011;13211;51.796;5.808;2023-08-17T09:17:42;6.10;;;2.85;;
25263;SDS011;13211;51.796;5.808;2023-08-17T09:20:10;10.68;;;3.38;;
25263;SDS011;13211;51.796;5.808;2023-08-17T09:22:42;13.30;;;3.38;;
25263;SDS011;13211;51.796;5.808;2023-08-17T09:25:10;7.07;;;2.88;;
25263;SDS011;13211;51.796;5.808;2023-08-17T09:27:38;12.18;;;3.78;;
25263;SDS011;13211;51.796;5.808;2023-08-17T09:30:11;14.32;;;4.07;;
25263;SDS011;13211;51.796;5.808;2023-08-17T09:32:38;11.48;;;3.47;;
25263;SDS011;13211;51.796;5.808;2023-08-17T09:35:06;12.55;;;4.25;;
25263;SDS011;13211;51.796;5.808;2023-08-17T09:37:34;9.30;;;3.75;;
25263;SDS011;13211;51.796;5.808;2023-08-17T09:40:01;11.15;;;3.92;;
25263;SDS011;13211;51.796;5.808;2023-08-17T09:42:29;9.98;;;4.00;;
25263;SDS011;13211;51.796;5.808;2023-08-17T09:44:57;9.52;;;3.85;;
25263;SDS011;13211;51.796;5.808;2023-08-17T09:47:27;12.85;;;4.32;;
25263;SDS011;13211;51.796;5.808;2023-08-17T09:49:55;11.68;;;4.38;;
25263;SDS011;13211;51.796;5.808;2023-08-17T09:52:24;12.68;;;4.15;;
25263;SDS011;13211;51.796;5.808;2023-08-17T09:54:52;11.40;;;3.67;;
25263;SDS011;13211;51.796;5.808;2023-08-17T09:57:21;15.35;;;4.80;;
25263;SDS011;13211;51.796;5.808;2023-08-17T09:59:49;15.55;;;4.70;;
25263;SDS011;13211;51.796;5.808;2023-08-17T10:02:22;10.35;;;4.03;;
25263;SDS011;13211;51.796;5.808;2023-08-17T10:04:52;8.70;;;3.83;;
25263;SDS011;13211;51.796;5.808;2023-08-17T10:07:20;17.13;;;4.35;;
25263;SDS011;13211;51.796;5.808;2023-08-17T10:09:56;13.93;;;4.22;;
25263;SDS011;13211;51.796;5.808;2023-08-17T10:12:27;12.45;;;4.82;;
25263;SDS011;13211;51.796;5.808;2023-08-17T10:14:59;10.45;;;3.47;;
25263;SDS011;13211;51.796;5.808;2023-08-17T10:17:30;9.02;;;3.80;;
25263;SDS011;13211;51.796;5.808;2023-08-17T10:20:00;12.27;;;3.63;;
25263;SDS011;13211;51.796;5.808;2023-08-17T10:22:33;12.25;;;3.90;;
25263;SDS011;13211;51.796;5.808;2023-08-17T10:25:05;11.50;;;3.88;;
25263;SDS011;13211;51.796;5.808;2023-08-17T10:27:33;10.00;;;3.80;;
25263;SDS011;13211;51.796;5.808;2023-08-17T10:30:01;9.95;;;4.18;;
25263;SDS011;13211;51.796;5.808;2023-08-17T10:32:34;15.02;;;4.95;;
25263;SDS011;13211;51.796;5.808;2023-08-17T10:35:02;13.77;;;4.45;;
25263;SDS011;13211;51.796;5.808;2023-08-17T10:37:30;12.95;;;4.03;;
25263;SDS011;13211;51.796;5.808;2023-08-17T10:39:58;10.82;;;4.63;;
25263;SDS011;13211;51.796;5.808;2023-08-17T10:42:30;11.68;;;4.60;;
25263;SDS011;13211;51.796;5.808;2023-08-17T10:44:58;13.30;;;5.35;;
25263;SDS011;13211;51.796;5.808;2023-08-17T10:47:28;14.63;;;5.18;;
25263;SDS011;13211;51.796;5.808;2023-08-17T10:50:21;14.93;;;5.20;;
25263;SDS011;13211;51.796;5.808;2023-08-17T10:52:47;17.50;;;5.47;;
25263;SDS011;13211;51.796;5.808;2023-08-17T10:55:15;15.43;;;5.18;;
25263;SDS011;13211;51.796;5.808;2023-08-17T10:57:45;10.07;;;4.40;;
25263;SDS011;13211;51.796;5.808;2023-08-17T11:00:13;15.20;;;5.35;;
25263;SDS011;13211;51.796;5.808;2023-08-17T11:02:54;16.00;;;5.88;;
25263;SDS011;13211;51.796;5.808;2023-08-17T11:05:34;17.67;;;5.97;;
25263;SDS011;13211;51.796;5.808;2023-08-17T11:08:03;16.08;;;6.20;;
25263;SDS011;13211;51.796;5.808;2023-08-17T11:10:30;15.55;;;6.43;;
25263;SDS011;13211;51.796;5.808;2023-08-17T11:12:58;12.25;;;5.82;;
25263;SDS011;13211;51.796;5.808;2023-08-17T11:15:26;15.32;;;6.18;;
25263;SDS011;13211;51.796;5.808;2023-08-17T11:18:05;14.48;;;5.78;;
25263;SDS011;13211;51.796;5.808;2023-08-17T11:20:36;16.52;;;6.38;;
25263;SDS011;13211;51.796;5.808;2023-08-17T11:23:08;13.07;;;5.82;;
25263;SDS011;13211;51.796;5.808;2023-08-17T11:25:36;18.05;;;5.97;;
25263;SDS011;13211;51.796;5.808;2023-08-17T11:28:05;15.50;;;6.70;;
25263;SDS011;13211;51.796;5.808;2023-08-17T11:30:33;14.18;;;6.10;;
25263;SDS011;13211;51.796;5.808;2023-08-17T11:33:02;19.73;;;6.53;;
25263;SDS011;13211;51.796;5.808;2023-08-17T11:35:30;13.23;;;5.95;;
25263;SDS011;13211;51.796;5.808;2023-08-17T11:37:57;18.23;;;6.82;;
25263;SDS011;13211;51.796;5.808;2023-08-17T11:40:25;13.20;;;6.30;;
25263;SDS011;13211;51.796;5.808;2023-08-17T11:42:53;14.30;;;6.85;;
25263;SDS011;13211;51.796;5.808;2023-08-17T11:45:21;14.85;;;6.53;;
25263;SDS011;13211;51.796;5.808;2023-08-17T11:47:53;15.90;;;6.90;;
25263;SDS011;13211;51.796;5.808;2023-08-17T11:50:21;20.88;;;8.75;;
25263;SDS011;13211;51.796;5.808;2023-08-17T11:52:48;15.48;;;6.72;;
25263;SDS011;13211;51.796;5.808;2023-08-17T11:55:16;12.65;;;5.97;;
25263;SDS011;13211;51.796;5.808;2023-08-17T11:57:44;14.13;;;6.28;;
25263;SDS011;13211;51.796;5.808;2023-08-17T12:00:17;13.20;;;5.85;;
25263;SDS011;13211;51.796;5.808;2023-08-17T12:02:48;13.68;;;6.13;;
25263;SDS011;13211;51.796;5.808;2023-08-17T12:05:20;12.75;;;5.50;;
25263;SDS011;13211;51.796;5.808;2023-08-17T12:07:50;13.00;;;5.93;;
25263;SDS011;13211;51.796;5.808;2023-08-17T12:10:18;22.10;;;6.72;;
25263;SDS011;13211;51.796;5.808;2023-08-17T12:12:51;17.00;;;5.88;;
25263;SDS011;13211;51.796;5.808;2023-08-17T12:15:19;16.25;;;5.93;;
25263;SDS011;13211;51.796;5.808;2023-08-17T12:17:47;10.77;;;5.55;;
25263;SDS011;13211;51.796;5.808;2023-08-17T12:20:15;18.70;;;6.45;;
25263;SDS011;13211;51.796;5.808;2023-08-17T12:22:44;12.90;;;6.13;;
25263;SDS011;13211;51.796;5.808;2023-08-17T12:25:11;12.13;;;6.22;;
25263;SDS011;13211;51.796;5.808;2023-08-17T12:27:39;12.80;;;6.57;;
25263;SDS011;13211;51.796;5.808;2023-08-17T12:32:52;13.68;;;5.78;;
25263;SDS011;13211;51.796;5.808;2023-08-17T12:35:24;14.95;;;6.53;;
25263;SDS011;13211;51.796;5.808;2023-08-17T12:37:53;13.63;;;6.35;;
25263;SDS011;13211;51.796;5.808;2023-08-17T12:40:21;13.18;;;6.32;;
25263;SDS011;13211;51.796;5.808;2023-08-17T12:42:49;10.48;;;5.70;;
25263;SDS011;13211;51.796;5.808;2023-08-17T12:45:16;16.50;;;6.53;;
25263;SDS011;13211;51.796;5.808;2023-08-17T12:47:44;11.65;;;5.70;;
25263;SDS011;13211;51.796;5.808;2023-08-17T12:50:11;17.15;;;5.75;;
25263;SDS011;13211;51.796;5.808;2023-08-17T12:52:39;13.55;;;5.97;;
25263;SDS011;13211;51.796;5.808;2023-08-17T12:55:12;15.70;;;6.03;;
25263;SDS011;13211;51.796;5.808;2023-08-17T12:57:40;14.38;;;6.20;;
25263;SDS011;13211;51.796;5.808;2023-08-17T13:00:07;14.32;;;6.07;;
25263;SDS011;13211;51.796;5.808;2023-08-17T13:02:35;17.08;;;6.32;;
25263;SDS011;13211;51.796;5.808;2023-08-17T13:05:03;14.23;;;6.38;;
25263;SDS011;13211;51.796;5.808;2023-08-17T13:07:30;15.27;;;6.82;;
25263;SDS011;13211;51.796;5.808;2023-08-17T13:09:58;13.32;;;6.20;;
25263;SDS011;13211;51.796;5.808;2023-08-17T13:12:25;17.13;;;6.93;;
25263;SDS011;13211;51.796;5.808;2023-08-17T13:14:53;11.73;;;6.30;;
25263;SDS011;13211;51.796;5.808;2023-08-17T13:17:21;11.73;;;5.78;;
25263;SDS011;13211;51.796;5.808;2023-08-17T13:19:49;15.70;;;7.07;;
25263;SDS011;13211;51.796;5.808;2023-08-17T13:22:17;17.10;;;8.48;;
25263;SDS011;13211;51.796;5.808;2023-08-17T13:24:44;12.65;;;6.93;;
25263;SDS011;13211;51.796;5.808;2023-08-17T13:27:12;13.98;;;6.95;;
25263;SDS011;13211;51.796;5.808;2023-08-17T13:29:39;12.25;;;7.43;;
25263;SDS011;13211;51.796;5.808;2023-08-17T13:32:07;12.85;;;6.85;;
25263;SDS011;13211;51.796;5.808;2023-08-17T13:34:34;13.40;;;7.82;;
25263;SDS011;13211;51.796;5.808;2023-08-17T13:37:03;13.18;;;6.97;;
25263;SDS011;13211;51.796;5.808;2023-08-17T13:39:30;10.98;;;6.43;;
25263;SDS011;13211;51.796;5.808;2023-08-17T13:41:58;13.73;;;8.00;;
25263;SDS011;13211;51.796;5.808;2023-08-17T13:44:26;12.93;;;7.28;;
25263;SDS011;13211;51.796;5.808;2023-08-17T13:46:54;13.27;;;7.35;;
25263;SDS011;13211;51.796;5.808;2023-08-17T13:49:21;14.27;;;7.68;;
25263;SDS011;13211;51.796;5.808;2023-08-17T13:51:50;10.45;;;6.50;;
25263;SDS011;13211;51.796;5.808;2023-08-17T13:54:18;11.75;;;7.38;;
25263;SDS011;13211;51.796;5.808;2023-08-17T13:56:46;12.55;;;7.28;;
25263;SDS011;13211;51.796;5.808;2023-08-17T13:59:13;12.20;;;7.13;;
25263;SDS011;13211;51.796;5.808;2023-08-17T14:01:41;13.93;;;6.57;;
25263;SDS011;13211;51.796;5.808;2023-08-17T14:04:08;11.27;;;6.85;;
25263;SDS011;13211;51.796;5.808;2023-08-17T14:06:39;15.75;;;8.38;;
25263;SDS011;13211;51.796;5.808;2023-08-17T14:09:08;14.57;;;7.40;;
25263;SDS011;13211;51.796;5.808;2023-08-17T14:11:35;16.90;;;8.10;;
25263;SDS011;13211;51.796;5.808;2023-08-17T14:14:03;15.77;;;8.45;;
25263;SDS011;13211;51.796;5.808;2023-08-17T14:16:32;17.55;;;8.93;;
25263;SDS011;13211;51.796;5.808;2023-08-17T14:18:59;13.85;;;7.60;;
25263;SDS011;13211;51.796;5.808;2023-08-17T14:21:27;17.17;;;8.77;;
25263;SDS011;13211;51.796;5.808;2023-08-17T14:23:54;12.77;;;7.68;;
25263;SDS011;13211;51.796;5.808;2023-08-17T14:26:22;13.57;;;8.38;;
25263;SDS011;13211;51.796;5.808;2023-08-17T14:28:50;14.15;;;7.30;;
25263;SDS011;13211;51.796;5.808;2023-08-17T14:31:17;13.13;;;7.45;;
25263;SDS011;13211;51.796;5.808;2023-08-17T14:33:45;16.70;;;9.23;;
25263;SDS011;13211;51.796;5.808;2023-08-17T14:36:14;19.15;;;9.05;;
25263;SDS011;13211;51.796;5.808;2023-08-17T14:41:12;13.18;;;7.25;;
25263;SDS011;13211;51.796;5.808;2023-08-17T14:43:39;14.93;;;8.57;;
25263;SDS011;13211;51.796;5.808;2023-08-17T14:46:07;15.35;;;8.10;;
25263;SDS011;13211;51.796;5.808;2023-08-17T14:48:40;12.32;;;8.15;;
25263;SDS011;13211;51.796;5.808;2023-08-17T14:51:08;13.65;;;7.80;;
25263;SDS011;13211;51.796;5.808;2023-08-17T14:53:36;13.10;;;7.47;;
25263;SDS011;13211;51.796;5.808;2023-08-17T14:56:05;12.57;;;7.60;;
25263;SDS011;13211;51.796;5.808;2023-08-17T14:58:33;14.13;;;8.55;;
25263;SDS011;13211;51.796;5.808;2023-08-17T15:01:00;15.85;;;8.77;;
25263;SDS011;13211;51.796;5.808;2023-08-17T15:03:29;14.98;;;7.90;;
25263;SDS011;13211;51.796;5.808;2023-08-17T15:05:57;15.23;;;7.95;;
25263;SDS011;13211;51.796;5.808;2023-08-17T15:08:24;13.80;;;9.10;;
25263;SDS011;13211;51.796;5.808;2023-08-17T15:10:52;12.23;;;8.23;;